createdAt,value
2018-07-24T00:04:50.003Z,15.30
2018-07-24T00:07:17.924Z,15.30
2018-07-24T00:12:14.053Z,15.10
2018-07-24T00:14:41.992Z,15.00
2018-07-24T00:17:09.999Z,14.90
2018-07-24T00:19:37.987Z,14.90
2018-07-24T00:24:33.964Z,15.00
2018-07-24T00:27:01.972Z,15.10
2018-07-24T00:29:29.924Z,15.10
2018-07-24T00:31:57.858Z,15.10
2018-07-24T00:34:25.807Z,15.10
2018-07-24T00:39:21.468Z,15.10
2018-07-24T00:41:49.394Z,15.00
2018-07-24T00:44:17.295Z,15.10
2018-07-24T00:46:45.284Z,15.00
2018-07-24T00:49:13.244Z,15.00
2018-07-24T00:51:41.250Z,14.90
2018-07-24T00:54:09.184Z,14.80
2018-07-24T00:56:37.132Z,14.80
2018-07-24T01:01:32.992Z,14.80
2018-07-24T01:04:01.050Z,14.70
2018-07-24T01:11:24.566Z,14.70
2018-07-24T01:13:52.487Z,14.70
2018-07-24T01:16:20.414Z,14.70
2018-07-24T01:18:48.356Z,14.70
2018-07-24T01:23:44.300Z,14.70
2018-07-24T01:31:07.757Z,14.60
2018-07-24T01:33:35.791Z,14.60
2018-07-24T01:36:03.685Z,14.40
2018-07-24T01:38:31.637Z,14.20
2018-07-24T01:40:59.639Z,14.00
2018-07-24T01:43:27.536Z,14.20
2018-07-24T01:45:55.484Z,14.30
2018-07-24T01:48:23.377Z,14.30
2018-07-24T01:50:51.307Z,14.40
2018-07-24T01:53:19.216Z,14.30
2018-07-24T01:55:47.192Z,14.20
2018-07-24T01:58:15.178Z,14.20
2018-07-24T02:00:43.120Z,14.10
2018-07-24T02:03:11.105Z,14.10
2018-07-24T02:05:39.056Z,13.90
2018-07-24T02:08:06.989Z,13.70
2018-07-24T02:10:34.948Z,13.50
2018-07-24T02:13:03.095Z,13.50
2018-07-24T02:17:58.800Z,13.60
2018-07-24T02:20:26.729Z,13.80
2018-07-24T02:22:54.670Z,13.90
2018-07-24T02:27:50.354Z,14.00
2018-07-24T02:30:18.322Z,14.00
2018-07-24T02:32:46.193Z,14.00
2018-07-24T02:35:14.241Z,14.00
2018-07-24T02:37:45.636Z,14.00
2018-07-24T02:40:13.628Z,14.00
2018-07-24T02:42:41.605Z,13.90
2018-07-24T02:52:33.213Z,13.70
2018-07-24T02:55:01.149Z,13.70
2018-07-24T02:57:30.438Z,13.70
2018-07-24T02:59:58.359Z,13.60
2018-07-24T03:02:26.281Z,13.60
2018-07-24T03:04:54.204Z,13.60
2018-07-24T03:07:22.184Z,13.70
2018-07-24T03:09:50.158Z,13.70
2018-07-24T03:12:18.120Z,13.60
2018-07-24T03:14:46.137Z,13.60
2018-07-24T03:17:14.073Z,13.60
2018-07-24T03:19:42.021Z,13.60
2018-07-24T03:22:10.093Z,13.60
2018-07-24T03:24:38.180Z,13.60
2018-07-24T03:27:06.336Z,13.60
2018-07-24T03:29:34.557Z,13.60
2018-07-24T03:32:02.612Z,13.60
2018-07-24T03:34:30.660Z,13.50
2018-07-24T03:36:58.859Z,13.50
2018-07-24T03:39:26.897Z,13.50
2018-07-24T03:41:55.031Z,13.60
2018-07-24T03:44:23.053Z,13.60
2018-07-24T03:46:51.242Z,13.60
2018-07-24T03:49:19.411Z,13.50
2018-07-24T03:51:47.585Z,13.50
2018-07-24T03:54:15.769Z,13.50
2018-07-24T03:56:43.812Z,13.40
2018-07-24T04:01:39.756Z,13.40
2018-07-24T04:04:07.969Z,13.50
2018-07-24T04:06:35.939Z,13.50
2018-07-24T04:09:05.773Z,13.60
2018-07-24T04:11:33.738Z,13.80
2018-07-24T04:14:01.717Z,14.10
2018-07-24T04:16:29.735Z,14.40
2018-07-24T04:18:57.844Z,14.70
2018-07-24T04:21:25.883Z,14.90
2018-07-24T04:23:54.120Z,15.10
2018-07-24T04:26:22.223Z,15.10
2018-07-24T04:31:17.993Z,15.40
2018-07-24T04:33:45.928Z,15.60
2018-07-24T04:38:41.624Z,16.00
2018-07-24T04:41:09.576Z,16.30
2018-07-24T04:43:37.529Z,16.90
2018-07-24T04:46:05.584Z,17.20
2018-07-24T04:48:33.594Z,17.50
2018-07-24T04:51:01.678Z,17.60
2018-07-24T04:53:29.660Z,17.80
2018-07-24T04:55:57.632Z,17.90
2018-07-24T04:58:25.565Z,18.20
2018-07-24T05:00:53.758Z,18.30
2018-07-24T05:03:21.812Z,18.60
2018-07-24T05:05:49.672Z,18.70
2018-07-24T05:08:17.660Z,18.70
2018-07-24T05:10:45.695Z,18.90
2018-07-24T05:15:41.498Z,19.20
2018-07-24T05:18:09.636Z,19.60
2018-07-24T05:20:37.666Z,20.10
2018-07-24T05:23:05.617Z,20.20
2018-07-24T05:25:33.544Z,20.60
2018-07-24T05:28:01.477Z,21.00
2018-07-24T05:30:29.432Z,21.30
2018-07-24T05:32:57.340Z,21.70
2018-07-24T05:35:25.301Z,22.00
2018-07-24T05:40:21.027Z,22.10
2018-07-24T05:47:44.555Z,22.10
2018-07-24T05:50:12.499Z,21.80
2018-07-24T05:55:08.237Z,22.50
2018-07-24T05:57:36.155Z,22.30
2018-07-24T06:00:05.115Z,22.20
2018-07-24T06:02:33.085Z,21.90
2018-07-24T06:05:01.008Z,21.80
2018-07-24T06:07:28.943Z,21.30
2018-07-24T06:09:56.900Z,20.50
2018-07-24T06:12:24.813Z,19.90
2018-07-24T06:14:52.787Z,19.50
2018-07-24T06:17:20.724Z,19.40
2018-07-24T06:19:48.671Z,19.30
2018-07-24T06:22:16.677Z,19.30
2018-07-24T06:24:44.604Z,19.50
2018-07-24T06:32:08.115Z,19.90
2018-07-24T06:37:03.898Z,20.10
2018-07-24T06:39:31.938Z,20.20
2018-07-24T06:41:59.888Z,20.30
2018-07-24T06:49:23.299Z,20.60
2018-07-24T06:51:51.252Z,20.70
2018-07-24T06:56:46.896Z,20.80
2018-07-24T07:01:42.584Z,21.10
2018-07-24T07:04:10.511Z,21.20
2018-07-24T07:06:38.494Z,21.20
2018-07-24T07:09:07.908Z,21.30
2018-07-24T07:11:35.907Z,21.40
2018-07-24T07:14:04.907Z,21.50
2018-07-24T07:16:33.007Z,21.50
2018-07-24T07:19:00.939Z,21.70
2018-07-24T07:21:28.897Z,21.80
2018-07-24T07:23:56.866Z,21.90
2018-07-24T07:26:24.835Z,22.00
2018-07-24T07:28:52.753Z,22.00
2018-07-24T07:31:20.692Z,22.20
2018-07-24T07:33:48.633Z,22.50
2018-07-24T07:36:17.085Z,22.40
2018-07-24T07:41:12.818Z,22.60
2018-07-24T07:46:08.568Z,22.60
2018-07-24T07:51:04.264Z,22.90
2018-07-24T07:53:32.202Z,23.10
2018-07-24T07:56:00.188Z,23.30
2018-07-24T07:58:28.136Z,23.60
2018-07-24T08:03:39.402Z,23.60
2018-07-24T08:06:07.774Z,23.60
2018-07-24T08:08:35.980Z,23.60
2018-07-24T08:11:04.282Z,23.60
2018-07-24T08:13:32.330Z,23.70
2018-07-24T08:16:00.659Z,23.90
2018-07-24T08:18:28.802Z,23.90
2018-07-24T08:20:56.889Z,24.00
2018-07-24T08:23:24.935Z,24.00
2018-07-24T08:25:53.039Z,24.10
2018-07-24T08:28:21.073Z,24.10
2018-07-24T08:30:49.177Z,24.10
2018-07-24T08:33:17.372Z,24.10
2018-07-24T08:35:45.421Z,24.10
2018-07-24T08:38:13.614Z,24.20
2018-07-24T08:40:41.853Z,24.40
2018-07-24T08:43:10.047Z,24.30
2018-07-24T08:45:38.116Z,24.50
2018-07-24T08:48:06.315Z,24.60
2018-07-24T08:50:34.469Z,24.60
2018-07-24T08:53:02.710Z,24.60
2018-07-24T08:55:31.096Z,24.80
2018-07-24T08:57:58.806Z,24.80
2018-07-24T09:00:26.726Z,24.90
2018-07-24T09:05:22.829Z,25.10
2018-07-24T09:07:50.991Z,25.20
2018-07-24T09:10:19.083Z,25.10
2018-07-24T09:12:47.111Z,25.30
2018-07-24T09:15:15.204Z,25.30
2018-07-24T09:17:43.214Z,25.30
2018-07-24T09:20:11.258Z,25.30
2018-07-24T09:22:39.395Z,25.60
2018-07-24T09:27:35.445Z,25.80
2018-07-24T09:30:03.748Z,26.00
2018-07-24T09:32:31.901Z,26.00
2018-07-24T09:35:00.022Z,26.00
2018-07-24T09:37:28.160Z,26.10
2018-07-24T09:39:56.405Z,26.00
2018-07-24T09:42:24.397Z,26.10
2018-07-24T09:44:52.597Z,26.10
2018-07-24T09:47:20.670Z,26.00
2018-07-24T09:49:48.811Z,26.10
2018-07-24T09:54:44.889Z,26.10
2018-07-24T09:57:13.175Z,26.10
2018-07-24T09:59:41.252Z,26.00
2018-07-24T10:02:09.313Z,25.90
2018-07-24T10:04:37.464Z,26.00
2018-07-24T10:07:05.574Z,26.10
2018-07-24T10:09:33.725Z,26.20
2018-07-24T10:12:01.930Z,26.10
2018-07-24T10:14:30.072Z,26.20
2018-07-24T10:16:58.522Z,26.10
2018-07-24T10:19:26.708Z,26.10
2018-07-24T10:24:22.846Z,26.40
2018-07-24T10:26:50.943Z,26.40
2018-07-24T10:29:19.043Z,26.60
2018-07-24T10:31:47.188Z,26.80
2018-07-24T10:34:15.296Z,27.00
2018-07-24T10:36:43.441Z,27.20
2018-07-24T10:39:12.323Z,27.00
2018-07-24T10:44:08.819Z,27.20
2018-07-24T10:46:37.426Z,27.20
2018-07-24T10:49:06.092Z,27.10
2018-07-24T10:51:34.174Z,27.10
2018-07-24T10:54:02.316Z,27.10
2018-07-24T10:56:30.977Z,27.20
2018-07-24T11:01:27.174Z,27.30
2018-07-24T11:03:55.528Z,27.50
2018-07-24T11:06:23.735Z,27.50
2018-07-24T11:08:51.898Z,27.60
2018-07-24T11:11:20.005Z,27.50
2018-07-24T11:13:47.917Z,27.60
2018-07-24T11:16:16.173Z,27.60
2018-07-24T11:21:12.560Z,27.50
2018-07-24T11:23:40.749Z,27.50
2018-07-24T11:26:08.896Z,27.40
2018-07-24T11:28:37.201Z,27.70
2018-07-24T11:31:05.270Z,27.70
2018-07-24T11:33:33.425Z,27.80
2018-07-24T11:36:01.870Z,28.00
2018-07-24T11:38:30.031Z,27.80
2018-07-24T11:40:58.298Z,27.80
2018-07-24T11:43:26.566Z,27.90
2018-07-24T11:45:54.612Z,27.60
2018-07-24T11:48:22.712Z,27.50
2018-07-24T11:50:50.765Z,27.50
2018-07-24T11:53:19.080Z,27.70
2018-07-24T11:55:47.251Z,27.70
2018-07-24T11:58:15.349Z,27.90
2018-07-24T12:00:43.666Z,28.10
2018-07-24T12:03:11.884Z,28.20
2018-07-24T12:05:40.018Z,28.10
2018-07-24T12:08:08.114Z,28.10
2018-07-24T12:10:36.173Z,28.30
2018-07-24T12:13:04.326Z,28.40
2018-07-24T12:15:32.594Z,28.30
2018-07-24T12:20:28.589Z,28.10
2018-07-24T12:22:56.647Z,28.20
2018-07-24T12:25:24.834Z,28.30
2018-07-24T12:27:52.970Z,28.30
2018-07-24T12:32:49.172Z,28.40
2018-07-24T12:35:17.225Z,28.30
2018-07-24T12:37:45.400Z,28.20
2018-07-24T12:40:13.801Z,28.30
2018-07-24T12:42:41.825Z,28.30
2018-07-24T12:45:09.926Z,28.40
2018-07-24T12:47:38.002Z,28.50
2018-07-24T12:50:06.605Z,28.40
2018-07-24T12:52:34.822Z,28.40
2018-07-24T12:55:03.040Z,28.60
2018-07-24T12:57:31.278Z,28.90
2018-07-24T13:02:27.455Z,29.00
2018-07-24T13:04:55.537Z,28.70
2018-07-24T13:07:23.618Z,28.80
2018-07-24T13:09:51.851Z,28.70
2018-07-24T13:12:19.867Z,28.60
2018-07-24T13:14:48.109Z,28.40
2018-07-24T13:17:16.429Z,28.80
2018-07-24T13:19:44.350Z,29.00
2018-07-24T13:22:12.513Z,29.30
2018-07-24T13:24:40.838Z,29.30
2018-07-24T13:27:08.904Z,29.00
2018-07-24T13:29:36.980Z,28.70
2018-07-24T13:32:05.093Z,28.50
2018-07-24T13:34:33.309Z,28.70
2018-07-24T13:37:01.503Z,29.00
2018-07-24T13:39:29.566Z,29.00
2018-07-24T13:41:57.729Z,28.60
2018-07-24T13:44:25.938Z,28.00
2018-07-24T13:46:53.998Z,28.20
2018-07-24T13:49:22.187Z,28.50
2018-07-24T13:51:50.256Z,28.70
2018-07-24T13:54:18.463Z,28.90
2018-07-24T13:56:46.599Z,29.00
2018-07-24T13:59:14.704Z,29.30
2018-07-24T14:01:42.832Z,29.20
2018-07-24T14:04:11.332Z,29.10
2018-07-24T14:06:39.968Z,29.10
2018-07-24T14:09:09.972Z,29.10
2018-07-24T14:11:38.417Z,29.10
2018-07-24T14:14:06.665Z,29.20
2018-07-24T14:21:31.044Z,29.40
2018-07-24T14:23:59.098Z,29.20
2018-07-24T14:26:27.150Z,29.00
2018-07-24T14:28:55.362Z,29.00
2018-07-24T14:31:23.591Z,29.10
2018-07-24T14:33:51.922Z,29.20
2018-07-24T14:36:19.940Z,29.30
2018-07-24T14:38:48.176Z,29.50
2018-07-24T14:41:16.232Z,29.80
2018-07-24T14:43:44.272Z,29.70
2018-07-24T14:46:12.359Z,29.60
2018-07-24T14:48:40.517Z,29.60
2018-07-24T14:53:36.473Z,29.70
2018-07-24T14:56:04.861Z,29.30
2018-07-24T14:58:33.018Z,29.30
2018-07-24T15:01:01.116Z,28.90
2018-07-24T15:03:29.297Z,28.90
2018-07-24T15:05:57.367Z,28.50
2018-07-24T15:08:25.416Z,28.20
2018-07-24T15:10:53.518Z,28.30
2018-07-24T15:13:21.564Z,28.60
2018-07-24T15:15:49.964Z,28.80
2018-07-24T15:18:18.091Z,29.00
2018-07-24T15:20:46.142Z,29.20
2018-07-24T15:23:14.263Z,29.20
2018-07-24T15:25:42.540Z,29.00
2018-07-24T15:28:10.653Z,29.10
2018-07-24T15:30:38.781Z,28.90
2018-07-24T15:33:06.888Z,29.00
2018-07-24T15:35:35.047Z,28.80
2018-07-24T15:38:03.248Z,28.80
2018-07-24T15:40:31.304Z,28.90
2018-07-24T15:42:59.366Z,29.00
2018-07-24T15:45:27.565Z,29.10
2018-07-24T15:47:55.717Z,29.20
2018-07-24T15:50:23.818Z,29.20
2018-07-24T15:52:51.956Z,29.10
2018-07-24T15:55:20.154Z,28.90
2018-07-24T15:57:48.302Z,28.80
2018-07-24T16:00:16.309Z,28.80
2018-07-24T16:02:44.398Z,28.80
2018-07-24T16:05:12.507Z,28.90
2018-07-24T16:10:08.585Z,28.70
2018-07-24T16:12:36.880Z,28.60
2018-07-24T16:15:05.945Z,28.50
2018-07-24T16:17:34.185Z,28.70
2018-07-24T16:20:02.341Z,28.80
2018-07-24T16:25:22.127Z,28.80
2018-07-24T16:27:50.168Z,28.60
2018-07-24T16:30:18.264Z,28.60
2018-07-24T16:32:46.433Z,28.80
2018-07-24T16:35:14.616Z,28.80
2018-07-24T16:37:42.702Z,28.80
2018-07-24T16:40:10.764Z,28.60
2018-07-24T16:42:38.836Z,28.50
2018-07-24T16:45:07.177Z,29.00
2018-07-24T16:50:03.076Z,31.80
2018-07-24T16:52:31.110Z,32.40
2018-07-24T16:54:59.289Z,32.60
2018-07-24T16:57:27.363Z,32.80
2018-07-24T16:59:55.556Z,32.90
2018-07-24T17:02:23.629Z,33.20
2018-07-24T17:04:51.893Z,33.40
2018-07-24T17:07:20.092Z,33.10
2018-07-24T17:09:48.269Z,32.60
2018-07-24T17:12:16.342Z,32.60
2018-07-24T17:14:44.533Z,32.80
2018-07-24T17:17:12.600Z,32.50
2018-07-24T17:19:40.752Z,32.40
2018-07-24T17:22:08.845Z,32.40
2018-07-24T17:24:37.117Z,32.60
2018-07-24T17:27:05.164Z,33.10
2018-07-24T17:29:33.258Z,33.60
2018-07-24T17:32:01.305Z,33.30
2018-07-24T17:34:29.408Z,33.60
2018-07-24T17:36:57.549Z,33.60
2018-07-24T17:39:25.635Z,33.40
2018-07-24T17:41:53.765Z,33.20
2018-07-24T17:44:22.082Z,33.10
2018-07-24T17:46:50.291Z,33.00
2018-07-24T17:49:18.447Z,32.70
2018-07-24T17:51:46.507Z,32.50
2018-07-24T17:54:14.701Z,32.20
2018-07-24T17:56:42.748Z,32.10
2018-07-24T17:59:11.055Z,32.20
2018-07-24T18:01:39.228Z,31.90
2018-07-24T18:04:07.275Z,31.50
2018-07-24T18:06:35.481Z,31.30
2018-07-24T18:09:05.979Z,31.00
2018-07-24T18:11:34.333Z,31.00
2018-07-24T18:14:02.572Z,30.50
2018-07-24T18:16:30.618Z,29.80
2018-07-24T18:18:58.920Z,29.30
2018-07-24T18:21:27.252Z,29.00
2018-07-24T18:23:55.381Z,28.30
2018-07-24T18:26:23.605Z,27.40
2018-07-24T18:31:19.683Z,26.10
2018-07-24T18:33:47.942Z,25.60
2018-07-24T18:36:16.064Z,25.10
2018-07-24T18:38:44.409Z,24.80
2018-07-24T18:41:12.492Z,24.50
2018-07-24T18:43:40.673Z,24.20
2018-07-24T18:46:08.859Z,23.90
2018-07-24T18:48:37.029Z,23.60
2018-07-24T18:51:05.195Z,23.50
2018-07-24T18:53:33.373Z,23.20
2018-07-24T18:56:01.504Z,22.90
2018-07-24T19:00:57.676Z,22.30
2018-07-24T19:03:25.779Z,22.00
2018-07-24T19:05:53.828Z,21.70
2018-07-24T19:08:22.095Z,21.50
2018-07-24T19:10:50.165Z,21.40
2018-07-24T19:13:18.276Z,21.30
2018-07-24T19:15:46.328Z,21.20
2018-07-24T19:18:14.401Z,21.10
2018-07-24T19:20:42.729Z,21.00
2018-07-24T19:23:10.760Z,20.80
2018-07-24T19:25:38.843Z,20.80
2018-07-24T19:28:06.909Z,20.60
2018-07-24T19:30:34.964Z,20.50
2018-07-24T19:33:03.366Z,20.40
2018-07-24T19:35:31.509Z,20.30
2018-07-24T19:40:27.687Z,20.30
2018-07-24T19:42:55.842Z,20.20
2018-07-24T19:45:24.053Z,20.20
2018-07-24T19:47:52.309Z,20.20
2018-07-24T19:50:20.484Z,20.00
2018-07-24T19:52:48.552Z,19.80
2018-07-24T19:55:16.619Z,19.70
2018-07-24T19:57:44.809Z,19.60
2018-07-24T20:00:12.984Z,19.50
2018-07-24T20:02:41.060Z,19.50
2018-07-24T20:05:09.159Z,19.30
2018-07-24T20:07:37.212Z,19.30
2018-07-24T20:10:05.599Z,19.10
2018-07-24T20:17:29.699Z,19.00
2018-07-24T20:19:57.864Z,18.90
2018-07-24T20:22:26.068Z,18.90
2018-07-24T20:24:54.342Z,18.90
2018-07-24T20:27:22.593Z,18.90
2018-07-24T20:29:50.991Z,18.90
2018-07-24T20:32:19.063Z,19.00
2018-07-24T20:34:47.135Z,19.10
2018-07-24T20:37:15.204Z,19.00
2018-07-24T20:39:43.483Z,19.00
2018-07-24T20:42:11.664Z,18.90
2018-07-24T20:44:39.736Z,18.80
2018-07-24T20:47:07.796Z,18.80
2018-07-24T20:49:36.098Z,18.70
2018-07-24T20:52:04.346Z,18.60
2018-07-24T20:54:32.568Z,18.60
2018-07-24T20:57:00.769Z,18.50
2018-07-24T20:59:28.760Z,18.50
2018-07-24T21:04:24.643Z,18.50
2018-07-24T21:06:53.029Z,18.50
2018-07-24T21:09:21.197Z,18.50
2018-07-24T21:11:49.379Z,18.50
2018-07-24T21:14:17.437Z,18.40
2018-07-24T21:16:45.594Z,18.40
2018-07-24T21:19:13.816Z,18.40
2018-07-24T21:21:44.061Z,18.40
2018-07-24T21:24:12.604Z,18.40
2018-07-24T21:26:40.809Z,18.30
2018-07-24T21:29:08.752Z,18.30
2018-07-24T21:31:37.025Z,18.20
2018-07-24T21:34:05.427Z,18.10
2018-07-24T21:36:33.687Z,18.10
2018-07-24T21:39:01.881Z,18.10
2018-07-24T21:41:30.045Z,18.00
2018-07-24T21:43:58.212Z,18.00
2018-07-24T21:46:26.294Z,18.00
2018-07-24T21:48:54.558Z,17.90
2018-07-24T21:51:22.851Z,17.80
2018-07-24T21:53:50.881Z,17.70
2018-07-24T21:56:18.969Z,17.60
2018-07-24T21:58:47.152Z,17.50
2018-07-24T22:01:15.344Z,17.50
2018-07-24T22:03:43.467Z,17.40
2018-07-24T22:08:39.583Z,17.20
2018-07-24T22:11:07.817Z,17.10
2018-07-24T22:13:36.241Z,17.10
2018-07-24T22:16:04.374Z,17.10
2018-07-24T22:18:32.462Z,17.10
2018-07-24T22:21:00.520Z,17.10
2018-07-24T22:23:28.643Z,16.90
2018-07-24T22:25:56.862Z,16.80
2018-07-24T22:28:25.133Z,16.70
2018-07-24T22:30:53.236Z,16.70
2018-07-24T22:33:21.516Z,16.60
2018-07-24T22:35:49.778Z,16.60
2018-07-24T22:38:17.883Z,16.70
2018-07-24T22:40:46.116Z,16.70
2018-07-24T22:43:14.331Z,16.80
2018-07-24T22:45:42.574Z,16.80
2018-07-24T22:48:10.665Z,16.70
2018-07-24T22:50:38.842Z,16.60
2018-07-24T22:53:06.937Z,16.50
2018-07-24T22:55:35.099Z,16.40
2018-07-24T22:58:03.384Z,16.30
2018-07-24T23:00:31.445Z,16.30
2018-07-24T23:02:59.501Z,16.30
2018-07-24T23:05:27.785Z,16.30
2018-07-24T23:07:55.837Z,16.30
2018-07-24T23:10:29.402Z,16.30
2018-07-24T23:12:57.419Z,16.40
2018-07-24T23:15:25.732Z,16.40
2018-07-24T23:17:53.898Z,16.40
2018-07-24T23:20:21.933Z,16.40
2018-07-24T23:25:17.995Z,16.20
2018-07-24T23:27:46.081Z,16.10
2018-07-24T23:30:14.232Z,16.00
2018-07-24T23:32:42.445Z,16.10
2018-07-24T23:35:10.583Z,16.10
2018-07-24T23:37:38.801Z,16.20
2018-07-24T23:40:07.069Z,16.30
2018-07-24T23:42:35.440Z,16.30
2018-07-24T23:45:03.729Z,16.30
2018-07-24T23:47:31.797Z,16.30
2018-07-24T23:49:59.974Z,16.30
2018-07-24T23:52:28.038Z,16.20
2018-07-24T23:54:56.408Z,16.20
2018-07-24T23:57:24.492Z,16.20
2018-07-24T23:59:52.784Z,16.10
